Time;durP1;ratioP1;P1;durP2;ratioP2;P2;SDS_P1;SDS_P2;PMS_P1;PMS_P2;Temp;Humidity;BMP_temperature;BMP_pressure;BME280_temperature;BME280_humidity;BME280_pressure;Samples;Min_cycle;Max_cycle;Signal;HPM_P1;HPM_P2
2024/01/24 00:02:19;;;;;;;876.58;799.70;;;10.80;99.90;;;;;;4984451;28;20072;-79
2024/01/24 00:04:45;;;;;;;1070.90;956.65;;;10.80;99.90;;;;;;4987872;28;20053;-80
2024/01/24 00:07:10;;;;;;;899.78;817.30;;;10.70;99.90;;;;;;4972636;28;20116;-79
2024/01/24 00:09:36;;;;;;;940.35;853.72;;;10.80;99.90;;;;;;5055513;28;20037;-80
2024/01/24 00:12:02;;;;;;;990.53;891.00;;;10.70;99.90;;;;;;5003660;28;20466;-79
2024/01/24 00:14:28;;;;;;;984.42;885.65;;;10.70;99.90;;;;;;5004010;28;20148;-80
2024/01/24 00:16:54;;;;;;;986.60;885.63;;;10.70;99.90;;;;;;5002859;28;20038;-79
2024/01/24 00:19:19;;;;;;;1031.32;915.65;;;10.80;99.90;;;;;;5000944;28;20533;-80
2024/01/24 00:21:45;;;;;;;870.92;793.95;;;10.80;99.90;;;;;;5004011;28;20053;-80
2024/01/24 00:24:11;;;;;;;961.40;869.42;;;10.80;99.90;;;;;;5000359;28;20037;-79
2024/01/24 00:26:38;;;;;;;984.40;890.10;;;10.80;99.90;;;;;;5002208;28;20054;-80
2024/01/24 00:29:04;;;;;;;862.53;791.53;;;10.80;99.90;;;;;;5001320;28;20121;-79
2024/01/24 00:31:30;;;;;;;1168.40;999.90;;;10.80;99.90;;;;;;5002753;28;20523;-79
2024/01/24 00:33:55;;;;;;;911.92;831.88;;;10.80;99.90;;;;;;5000625;28;20081;-79
2024/01/24 00:36:23;;;;;;;1043.45;928.50;;;10.80;99.90;;;;;;4995707;28;20102;-79
2024/01/24 00:38:49;;;;;;;1008.03;907.42;;;10.80;99.90;;;;;;5000941;28;20045;-79
2024/01/24 00:41:14;;;;;;;966.97;875.97;;;10.80;99.90;;;;;;5002919;28;20046;-79
2024/01/24 00:43:41;;;;;;;1273.60;990.17;;;10.80;99.90;;;;;;5001866;28;20550;-79
2024/01/24 00:46:07;;;;;;;1493.25;999.90;;;10.80;99.90;;;;;;5002079;28;20134;-79
2024/01/24 00:48:33;;;;;;;994.90;891.50;;;10.90;99.90;;;;;;5001864;28;20182;-79
2024/01/24 00:50:59;;;;;;;1207.93;999.90;;;10.80;99.90;;;;;;5003274;28;20668;-79
2024/01/24 00:53:26;;;;;;;851.97;782.10;;;10.90;99.90;;;;;;5001576;28;20038;-79
2024/01/24 00:55:52;;;;;;;984.72;889.42;;;10.90;99.90;;;;;;5007248;28;20422;-79
2024/01/24 00:58:19;;;;;;;1051.45;936.70;;;10.80;99.90;;;;;;5000880;28;20046;-79
2024/01/24 01:00:44;;;;;;;864.10;791.53;;;10.80;99.90;;;;;;4986356;28;20126;-79
2024/01/24 01:03:10;;;;;;;1235.28;988.78;;;10.80;99.90;;;;;;4999529;28;20045;-79
2024/01/24 01:05:37;;;;;;;1140.93;962.55;;;10.80;99.90;;;;;;5000862;28;20053;-79
2024/01/24 01:08:03;;;;;;;911.55;828.30;;;10.80;99.90;;;;;;4998228;28;20145;-79
2024/01/24 01:10:28;;;;;;;1000.85;902.95;;;10.80;99.90;;;;;;4994638;28;20050;-79
2024/01/24 01:12:54;;;;;;;1095.20;968.25;;;10.70;99.90;;;;;;4987957;28;20042;-80
2024/01/24 01:15:20;;;;;;;1718.32;999.90;;;10.70;99.90;;;;;;4995882;28;20441;-79
2024/01/24 01:17:45;;;;;;;886.35;811.72;;;10.80;99.90;;;;;;4994244;28;20041;-79
2024/01/24 01:20:12;;;;;;;788.00;725.67;;;10.80;99.90;;;;;;5001243;28;20409;-79
2024/01/24 01:22:37;;;;;;;935.92;847.63;;;10.70;99.90;;;;;;4996185;28;20106;-79
2024/01/24 01:25:04;;;;;;;961.55;867.78;;;10.70;99.90;;;;;;4990451;28;20050;-80
2024/01/24 01:27:30;;;;;;;937.92;848.30;;;10.80;99.90;;;;;;4982467;28;20038;-79
2024/01/24 01:29:56;;;;;;;919.22;828.50;;;10.70;99.90;;;;;;4994778;28;20116;-80
2024/01/24 01:32:21;;;;;;;886.72;809.90;;;10.80;99.90;;;;;;5031037;28;20054;-79
2024/01/24 01:34:47;;;;;;;963.38;872.70;;;10.80;99.90;;;;;;4993249;28;20149;-79
2024/01/24 01:37:14;;;;;;;918.17;825.55;;;10.90;99.90;;;;;;4998334;28;20448;-80
2024/01/24 01:39:40;;;;;;;980.20;881.28;;;11.00;99.90;;;;;;5027392;28;20498;-79
2024/01/24 01:42:05;;;;;;;1661.65;999.90;;;11.00;99.90;;;;;;5000229;28;20115;-80
2024/01/24 01:44:36;;;;;;;904.35;826.20;;;11.10;99.90;;;;;;4993939;28;20050;-79
2024/01/24 01:47:02;;;;;;;1795.82;999.90;;;11.00;99.90;;;;;;4997943;28;20049;-80
2024/01/24 01:49:28;;;;;;;835.17;767.50;;;11.10;99.90;;;;;;4978712;28;20100;-79
2024/01/24 01:51:54;;;;;;;1098.97;904.08;;;11.10;99.90;;;;;;4996553;28;20050;-79
2024/01/24 01:54:20;;;;;;;1659.57;999.90;;;11.10;99.90;;;;;;4994456;28;20050;-79
2024/01/24 01:56:46;;;;;;;840.75;770.97;;;11.20;99.90;;;;;;4997948;28;20042;-79
2024/01/24 01:59:12;;;;;;;943.05;850.97;;;11.10;99.90;;;;;;4988576;28;20038;-79
2024/01/24 02:01:40;;;;;;;1289.97;965.60;;;11.10;99.90;;;;;;4992147;28;20068;-79
2024/01/24 02:04:06;;;;;;;872.60;794.15;;;11.20;99.90;;;;;;4987786;28;20085;-79
2024/01/24 02:06:32;;;;;;;949.55;858.80;;;11.20;99.90;;;;;;4985078;28;20058;-79
2024/01/24 02:08:58;;;;;;;990.42;885.55;;;11.30;99.90;;;;;;4985318;28;20107;-79
2024/01/24 02:11:23;;;;;;;918.45;837.42;;;11.30;99.90;;;;;;4981960;28;20124;-80
2024/01/24 02:13:57;;;;;;;1010.40;896.35;;;11.30;99.90;;;;;;5003823;28;20177;-79
2024/01/24 02:16:22;;;;;;;1143.57;966.33;;;11.20;99.90;;;;;;5020705;28;20047;-79
2024/01/24 02:18:49;;;;;;;852.03;780.25;;;11.20;99.90;;;;;;4986381;28;20167;-79
2024/01/24 02:21:15;;;;;;;929.17;838.42;;;11.30;99.90;;;;;;4985345;28;20191;-79
2024/01/24 02:23:43;;;;;;;915.05;828.53;;;11.20;99.90;;;;;;4984896;28;20050;-79
2024/01/24 02:26:10;;;;;;;1212.65;982.03;;;11.20;99.90;;;;;;4984697;28;20141;-79
2024/01/24 02:28:35;;;;;;;1163.45;929.38;;;11.20;99.90;;;;;;4985466;28;20039;-79
2024/01/24 02:31:01;;;;;;;891.60;813.85;;;11.30;99.90;;;;;;4990388;28;20050;-79
2024/01/24 02:33:27;;;;;;;942.95;855.80;;;11.30;99.90;;;;;;4994202;28;20111;-79
2024/01/24 02:35:53;;;;;;;798.92;735.50;;;11.30;99.90;;;;;;4979585;28;20504;-79
2024/01/24 02:38:18;;;;;;;940.42;854.95;;;11.20;99.90;;;;;;4996141;28;20131;-79
2024/01/24 02:40:44;;;;;;;825.28;759.67;;;11.20;99.90;;;;;;5004021;28;20046;-79
2024/01/24 02:43:10;;;;;;;1199.35;961.97;;;11.20;99.90;;;;;;5004943;28;20042;-79
2024/01/24 02:45:35;;;;;;;1250.38;967.10;;;11.30;99.90;;;;;;4999396;28;20083;-79
2024/01/24 02:48:01;;;;;;;935.40;846.65;;;11.30;99.90;;;;;;4984909;28;20046;-79
2024/01/24 02:50:27;;;;;;;941.67;846.55;;;11.30;99.90;;;;;;4984609;28;20125;-79
2024/01/24 02:52:53;;;;;;;1441.00;999.90;;;11.30;99.90;;;;;;4984904;28;20407;-79
2024/01/24 02:55:18;;;;;;;923.92;836.65;;;11.30;99.90;;;;;;4985089;28;20061;-79
2024/01/24 02:57:44;;;;;;;900.42;820.60;;;11.30;99.90;;;;;;4984815;28;20537;-79
2024/01/24 03:00:12;;;;;;;1357.93;975.28;;;11.30;99.90;;;;;;4986240;28;20071;-79
2024/01/24 03:02:39;;;;;;;956.00;864.63;;;11.40;99.90;;;;;;4999127;28;20117;-79
2024/01/24 03:05:06;;;;;;;1003.97;896.25;;;11.30;99.90;;;;;;4985412;28;20050;-79
2024/01/24 03:07:31;;;;;;;1675.82;993.42;;;11.30;99.90;;;;;;4985612;28;20046;-80
2024/01/24 03:09:57;;;;;;;1052.65;936.22;;;11.30;99.90;;;;;;4985049;28;20057;-79
2024/01/24 03:12:23;;;;;;;909.13;827.35;;;11.30;99.90;;;;;;5018178;28;20496;-79
2024/01/24 03:14:48;;;;;;;883.42;804.90;;;11.30;99.90;;;;;;4984023;28;20077;-79
2024/01/24 03:17:15;;;;;;;791.03;725.05;;;11.30;99.90;;;;;;4984134;28;20050;-79
2024/01/24 03:19:41;;;;;;;1132.32;947.08;;;11.20;99.90;;;;;;4986393;28;20108;-79
2024/01/24 03:22:06;;;;;;;1101.20;945.95;;;11.20;99.90;;;;;;4984978;28;20117;-79
2024/01/24 03:24:32;;;;;;;862.63;785.30;;;11.10;99.90;;;;;;4984516;28;20046;-79
2024/01/24 03:26:57;;;;;;;926.88;842.33;;;11.10;99.90;;;;;;4986334;28;20043;-79
2024/01/24 03:29:23;;;;;;;909.75;826.47;;;11.10;99.90;;;;;;4985048;28;20104;-79
2024/01/24 03:31:49;;;;;;;1062.13;901.22;;;11.00;99.90;;;;;;4985335;28;20057;-79
2024/01/24 03:34:15;;;;;;;867.58;793.17;;;10.90;99.90;;;;;;4983819;28;20038;-79
2024/01/24 03:36:41;;;;;;;842.88;770.20;;;11.00;99.90;;;;;;4982021;28;20053;-79
2024/01/24 03:39:09;;;;;;;1349.95;998.83;;;10.90;99.90;;;;;;4983963;28;20394;-79
2024/01/24 03:41:37;;;;;;;1342.90;999.90;;;10.80;99.90;;;;;;4985942;28;20117;-79
2024/01/24 03:44:03;;;;;;;942.63;852.70;;;10.90;99.90;;;;;;4984240;28;20046;-80
2024/01/24 03:46:29;;;;;;;894.38;811.50;;;10.80;99.90;;;;;;4986039;28;20405;-79
2024/01/24 03:48:55;;;;;;;980.58;881.00;;;10.80;99.90;;;;;;4986260;28;20034;-79
2024/01/24 03:51:20;;;;;;;911.42;825.47;;;10.90;99.90;;;;;;4984650;28;20589;-79
2024/01/24 03:53:46;;;;;;;1305.30;974.42;;;10.90;99.90;;;;;;4984007;28;20080;-80
2024/01/24 03:56:12;;;;;;;923.83;839.83;;;10.90;99.90;;;;;;4984465;28;20078;-79
2024/01/24 03:58:38;;;;;;;1550.10;999.90;;;10.90;99.90;;;;;;4984607;28;20103;-79
2024/01/24 04:01:05;;;;;;;1029.05;917.13;;;10.90;99.90;;;;;;4998248;28;20450;-79
2024/01/24 04:03:31;;;;;;;1236.50;970.33;;;10.90;99.90;;;;;;5003976;28;20046;-79
2024/01/24 04:05:57;;;;;;;1021.28;914.90;;;10.90;99.90;;;;;;4998066;28;20080;-79
2024/01/24 04:08:22;;;;;;;978.63;875.47;;;10.90;99.90;;;;;;4996007;28;20081;-79
2024/01/24 04:10:48;;;;;;;1081.45;898.00;;;10.90;99.90;;;;;;4984712;28;20038;-79
2024/01/24 04:13:14;;;;;;;987.25;891.45;;;10.90;99.90;;;;;;4983779;28;20070;-79
2024/01/24 04:15:41;;;;;;;901.33;820.38;;;10.90;99.90;;;;;;4984013;28;20060;-79
2024/01/24 04:18:06;;;;;;;1144.00;952.90;;;10.90;99.90;;;;;;4995957;28;20049;-80
2024/01/24 04:20:32;;;;;;;1252.53;988.05;;;10.90;99.90;;;;;;4996195;28;20046;-79
2024/01/24 04:22:58;;;;;;;977.97;885.63;;;10.90;99.90;;;;;;4985942;28;20210;-79
2024/01/24 04:25:24;;;;;;;984.53;885.35;;;10.80;99.90;;;;;;4982542;28;20049;-79
2024/01/24 04:27:50;;;;;;;1022.90;920.47;;;10.80;99.90;;;;;;5011690;28;20042;-79
2024/01/24 04:30:16;;;;;;;1232.93;982.42;;;10.70;99.90;;;;;;5013324;28;20062;-79
2024/01/24 04:32:41;;;;;;;1311.10;979.33;;;10.70;99.90;;;;;;4992719;28;20516;-79
2024/01/24 04:35:07;;;;;;;911.78;832.22;;;10.60;99.90;;;;;;4996129;28;20053;-79
2024/01/24 04:37:33;;;;;;;1026.82;918.88;;;10.60;99.90;;;;;;4994535;28;20103;-79
2024/01/24 04:39:58;;;;;;;1055.15;927.08;;;10.50;99.90;;;;;;4995740;28;20046;-79
2024/01/24 04:42:24;;;;;;;988.65;886.17;;;10.50;99.90;;;;;;4995307;28;20030;-79
2024/01/24 04:44:50;;;;;;;1044.80;928.40;;;10.40;99.90;;;;;;4996809;28;20232;-79
2024/01/24 04:47:16;;;;;;;1166.00;990.88;;;10.40;99.90;;;;;;4994377;28;20038;-79
2024/01/24 04:49:42;;;;;;;1265.38;995.88;;;10.40;99.90;;;;;;4997075;28;20469;-78
2024/01/24 04:52:08;;;;;;;1073.10;956.17;;;10.40;99.90;;;;;;4994007;28;20470;-79
2024/01/24 04:54:34;;;;;;;1047.20;934.05;;;10.30;99.90;;;;;;4995888;28;20080;-79
2024/01/24 04:57:01;;;;;;;1085.43;949.78;;;10.30;99.90;;;;;;4993486;28;20046;-79
2024/01/24 04:59:28;;;;;;;1097.07;941.95;;;10.30;99.90;;;;;;4989772;28;20059;-78
2024/01/24 05:01:54;;;;;;;1763.50;999.90;;;10.30;99.90;;;;;;5002454;28;20052;-79
2024/01/24 05:04:20;;;;;;;904.58;819.22;;;10.30;99.90;;;;;;4989394;28;20046;-79
2024/01/24 05:06:46;;;;;;;867.40;793.13;;;10.30;99.90;;;;;;4983217;28;20035;-79
2024/01/24 05:09:11;;;;;;;1009.65;866.53;;;10.30;99.90;;;;;;4996544;28;20380;-79
2024/01/24 05:11:40;;;;;;;750.78;688.15;;;10.30;99.90;;;;;;5002652;28;20107;-78
2024/01/24 05:14:06;;;;;;;1023.55;912.60;;;10.30;99.90;;;;;;4988319;28;20050;-79
2024/01/24 05:16:31;;;;;;;815.13;746.25;;;10.30;99.90;;;;;;5004153;28;20053;-79
2024/01/24 05:18:57;;;;;;;858.63;783.47;;;10.20;99.90;;;;;;4985835;28;20504;-79
2024/01/24 05:21:23;;;;;;;1034.18;899.85;;;10.20;99.90;;;;;;4985411;28;20144;-79
2024/01/24 05:23:51;;;;;;;906.13;820.30;;;10.20;99.90;;;;;;5000592;28;20150;-79
2024/01/24 05:26:16;;;;;;;921.15;831.22;;;10.20;99.90;;;;;;4985564;28;20102;-79
2024/01/24 05:28:42;;;;;;;850.70;767.78;;;10.20;99.90;;;;;;5033207;28;20046;-79
2024/01/24 05:31:08;;;;;;;972.03;871.42;;;10.20;99.90;;;;;;5001817;28;20046;-79
2024/01/24 05:33:33;;;;;;;809.30;735.28;;;10.20;99.90;;;;;;5000479;28;20042;-79
2024/01/24 05:36:00;;;;;;;863.95;786.03;;;10.20;99.90;;;;;;4996324;28;20065;-79
2024/01/24 05:38:27;;;;;;;933.30;829.50;;;10.20;99.90;;;;;;5001597;28;20058;-79
2024/01/24 05:40:53;;;;;;;659.13;608.08;;;10.20;99.90;;;;;;4989147;28;20133;-78
2024/01/24 05:43:19;;;;;;;879.53;798.35;;;10.20;99.90;;;;;;4984155;28;20145;-79
2024/01/24 05:45:49;;;;;;;770.00;701.25;;;10.20;99.90;;;;;;4971456;28;20435;-79
2024/01/24 05:48:15;;;;;;;838.25;755.80;;;10.10;99.90;;;;;;4986032;28;20046;-78
2024/01/24 05:50:41;;;;;;;806.00;736.28;;;10.10;99.90;;;;;;4986101;28;20107;-78
2024/01/24 05:53:06;;;;;;;774.78;707.45;;;10.10;99.90;;;;;;4987428;28;20050;-78
2024/01/24 05:55:32;;;;;;;625.70;577.50;;;10.10;99.90;;;;;;4966061;28;20491;-78
2024/01/24 05:57:58;;;;;;;876.33;790.70;;;10.10;99.90;;;;;;4992570;28;20106;-79
2024/01/24 06:00:23;;;;;;;947.42;845.38;;;10.10;99.90;;;;;;4985983;28;20043;-79
2024/01/24 06:02:49;;;;;;;659.10;606.70;;;10.10;99.90;;;;;;5017665;28;20502;-78
2024/01/24 06:05:15;;;;;;;789.13;711.72;;;10.10;99.90;;;;;;4985810;28;20050;-79
2024/01/24 06:07:41;;;;;;;655.45;603.55;;;10.10;99.90;;;;;;5000599;28;20464;-78
2024/01/24 06:10:07;;;;;;;629.55;577.40;;;10.10;99.90;;;;;;5003771;28;20057;-79
2024/01/24 06:12:33;;;;;;;638.17;580.60;;;10.10;99.90;;;;;;5003740;28;20406;-79
2024/01/24 06:14:59;;;;;;;853.80;767.00;;;10.10;99.90;;;;;;5038010;28;20145;-79
2024/01/24 06:17:25;;;;;;;563.28;519.10;;;10.10;99.90;;;;;;5004979;28;20057;-79
2024/01/24 06:19:51;;;;;;;829.17;748.00;;;10.10;99.90;;;;;;5004534;28;20042;-79
2024/01/24 06:22:17;;;;;;;734.05;669.03;;;10.10;99.90;;;;;;5004614;28;20057;-79
2024/01/24 06:24:44;;;;;;;636.70;583.20;;;10.00;99.90;;;;;;5004431;28;20069;-79
2024/01/24 06:27:10;;;;;;;674.35;618.22;;;10.00;99.90;;;;;;5005750;28;20038;-78
2024/01/24 06:29:36;;;;;;;670.42;613.33;;;10.00;99.90;;;;;;5004505;28;20042;-79
2024/01/24 06:32:02;;;;;;;590.67;542.95;;;9.90;99.90;;;;;;5002886;28;20057;-78
2024/01/24 06:34:28;;;;;;;624.03;574.65;;;9.90;99.90;;;;;;5002978;28;20050;-79
2024/01/24 06:36:53;;;;;;;725.30;661.72;;;9.90;99.90;;;;;;5001740;28;20054;-78
2024/01/24 06:39:19;;;;;;;767.58;698.00;;;9.80;99.90;;;;;;5002725;28;20061;-78
2024/01/24 06:41:45;;;;;;;691.10;630.20;;;9.80;99.90;;;;;;5003566;28;20495;-79
2024/01/24 06:44:11;;;;;;;787.65;716.92;;;9.60;99.90;;;;;;5003644;28;20042;-78
2024/01/24 06:46:44;;;;;;;703.75;644.22;;;9.60;99.90;;;;;;5003477;28;20121;-78
2024/01/24 06:49:10;;;;;;;693.20;635.60;;;9.60;99.90;;;;;;5003898;28;20042;-79
2024/01/24 06:51:38;;;;;;;649.92;596.80;;;9.50;99.90;;;;;;5003256;28;20065;-78
2024/01/24 06:54:05;;;;;;;674.17;617.35;;;9.50;99.90;;;;;;5004213;28;20427;-78
2024/01/24 06:56:31;;;;;;;714.08;651.78;;;9.60;99.90;;;;;;5003204;28;20488;-78
2024/01/24 06:58:57;;;;;;;516.65;477.95;;;9.60;99.90;;;;;;4993598;28;20043;-78
2024/01/24 07:01:22;;;;;;;546.75;505.88;;;9.50;99.90;;;;;;5001903;28;20050;-78
2024/01/24 07:03:48;;;;;;;716.58;651.35;;;9.50;99.90;;;;;;5037109;28;20045;-79
2024/01/24 07:06:14;;;;;;;708.75;641.75;;;9.50;99.90;;;;;;5002632;28;20164;-78
2024/01/24 07:08:40;;;;;;;585.13;538.35;;;9.50;99.90;;;;;;5003697;28;20089;-79
2024/01/24 07:11:07;;;;;;;617.80;567.35;;;9.50;99.90;;;;;;5005328;28;20069;-78
2024/01/24 07:13:33;;;;;;;652.33;597.75;;;9.50;99.90;;;;;;5004238;28;20050;-78
2024/01/24 07:16:02;;;;;;;710.65;643.53;;;9.50;99.90;;;;;;5003632;28;20050;-79
2024/01/24 07:18:27;;;;;;;557.58;508.98;;;9.50;99.90;;;;;;5001579;28;20415;-79
2024/01/24 07:20:54;;;;;;;675.38;615.30;;;9.60;99.90;;;;;;5028501;28;20482;-81
2024/01/24 07:23:20;;;;;;;672.35;612.10;;;9.60;99.90;;;;;;4984093;28;20042;-79
2024/01/24 07:25:45;;;;;;;575.78;525.35;;;9.60;99.90;;;;;;4994799;28;20038;-78
2024/01/24 07:28:11;;;;;;;645.97;592.63;;;9.60;99.90;;;;;;4995280;28;20054;-79
2024/01/24 07:30:37;;;;;;;613.63;561.97;;;9.60;99.90;;;;;;4999313;28;20049;-79
2024/01/24 07:33:03;;;;;;;601.30;551.10;;;9.50;99.90;;;;;;4999913;28;20505;-78
2024/01/24 07:35:29;;;;;;;593.17;545.03;;;9.50;99.90;;;;;;4989165;28;20041;-79
2024/01/24 07:37:55;;;;;;;643.47;588.90;;;9.50;99.90;;;;;;5000480;28;20698;-78
2024/01/24 07:40:20;;;;;;;574.80;528.00;;;9.50;99.90;;;;;;4998557;28;20110;-79
2024/01/24 07:42:47;;;;;;;604.25;554.75;;;9.50;99.90;;;;;;4998061;28;20054;-79
2024/01/24 07:45:13;;;;;;;928.90;790.55;;;9.40;99.90;;;;;;4994978;28;20044;-79
2024/01/24 07:47:39;;;;;;;688.05;627.60;;;9.40;99.90;;;;;;4987578;28;20400;-78
2024/01/24 07:50:05;;;;;;;739.10;668.67;;;9.50;99.90;;;;;;4996551;28;20805;-78
2024/01/24 07:52:31;;;;;;;684.67;624.70;;;9.40;99.90;;;;;;4998834;28;20091;-79
2024/01/24 07:54:57;;;;;;;686.95;629.70;;;9.40;99.90;;;;;;4995517;28;20045;-78
2024/01/24 07:57:22;;;;;;;936.08;837.10;;;9.40;99.90;;;;;;4995538;28;20128;-79
2024/01/24 07:59:48;;;;;;;959.60;853.47;;;9.30;99.90;;;;;;4990458;28;20069;-79
2024/01/24 08:02:14;;;;;;;933.35;842.85;;;9.40;99.90;;;;;;5002033;28;20071;-78
2024/01/24 08:04:39;;;;;;;1076.65;896.28;;;9.40;99.90;;;;;;4996001;28;20046;-78
2024/01/24 08:07:05;;;;;;;809.60;735.83;;;9.40;99.90;;;;;;4973435;28;20490;-79
2024/01/24 08:09:31;;;;;;;922.30;826.75;;;9.40;99.90;;;;;;4981966;28;20483;-79
2024/01/24 08:11:57;;;;;;;885.10;793.28;;;9.40;99.90;;;;;;4977211;28;20715;-79
2024/01/24 08:14:22;;;;;;;948.33;845.10;;;9.40;99.90;;;;;;5008090;28;20046;-78
2024/01/24 08:17:04;;;;;;;755.75;688.08;;;9.40;99.90;;;;;;4989313;28;20049;-79
2024/01/24 08:19:30;;;;;;;830.53;752.45;;;9.40;99.90;;;;;;5022443;28;20459;-78
2024/01/24 08:21:56;;;;;;;777.60;708.10;;;9.40;99.90;;;;;;4986347;28;20046;-79
2024/01/24 08:24:22;;;;;;;841.78;767.38;;;9.40;99.90;;;;;;4980468;28;20104;-78
2024/01/24 08:26:49;;;;;;;822.13;741.13;;;9.50;99.90;;;;;;4981082;28;20051;-78
2024/01/24 08:29:15;;;;;;;907.50;811.70;;;9.40;99.90;;;;;;5007591;28;20093;-78
2024/01/24 08:31:41;;;;;;;772.72;699.20;;;9.40;99.90;;;;;;4971762;28;20082;-78
2024/01/24 08:34:07;;;;;;;972.83;836.90;;;9.40;99.90;;;;;;4984242;28;20114;-79
2024/01/24 08:36:33;;;;;;;655.92;599.58;;;9.40;99.90;;;;;;4991581;28;20046;-80
2024/01/24 08:38:59;;;;;;;921.63;824.38;;;9.40;99.90;;;;;;5021190;28;20056;-79
2024/01/24 08:41:24;;;;;;;765.92;697.47;;;9.40;99.90;;;;;;4993347;28;20116;-78
2024/01/24 08:43:52;;;;;;;721.58;656.55;;;9.40;99.90;;;;;;4999118;28;20764;-79
2024/01/24 08:46:17;;;;;;;704.28;643.30;;;9.30;99.90;;;;;;4992310;28;20065;-79
2024/01/24 08:48:43;;;;;;;796.60;723.88;;;9.30;99.90;;;;;;4997260;28;20822;-79
2024/01/24 08:51:09;;;;;;;715.63;654.22;;;9.30;99.90;;;;;;4991269;28;20107;-79
2024/01/24 08:53:37;;;;;;;846.67;767.60;;;9.30;99.90;;;;;;4980601;28;20145;-79
2024/01/24 08:56:03;;;;;;;707.38;649.83;;;9.30;99.90;;;;;;4992404;28;20038;-79
2024/01/24 08:58:30;;;;;;;682.72;623.97;;;9.30;99.90;;;;;;4990029;28;20058;-79
2024/01/24 09:00:55;;;;;;;853.85;770.60;;;9.30;99.90;;;;;;4983212;28;20058;-78
2024/01/24 09:03:21;;;;;;;826.20;749.65;;;9.30;99.90;;;;;;4983363;28;20118;-78
2024/01/24 09:05:47;;;;;;;866.67;785.40;;;9.30;99.90;;;;;;4984521;28;20363;-79
2024/01/24 09:08:12;;;;;;;968.63;866.63;;;9.40;99.90;;;;;;4984600;28;20079;-79
2024/01/24 09:10:38;;;;;;;895.38;810.15;;;9.40;99.90;;;;;;4982731;28;20107;-79
2024/01/24 09:13:04;;;;;;;675.42;619.45;;;9.40;99.90;;;;;;4983060;28;20417;-79
2024/01/24 09:15:29;;;;;;;702.08;643.38;;;9.40;99.90;;;;;;4986483;28;20046;-79
2024/01/24 09:17:55;;;;;;;907.55;812.92;;;9.40;99.90;;;;;;4986574;28;20538;-79
2024/01/24 09:20:21;;;;;;;802.78;728.55;;;9.40;99.90;;;;;;4985660;28;20053;-79
2024/01/24 09:22:47;;;;;;;805.28;732.55;;;9.50;99.90;;;;;;4987891;28;20091;-79
2024/01/24 09:25:12;;;;;;;723.75;660.33;;;9.50;99.90;;;;;;4987528;28;20044;-78
2024/01/24 09:27:40;;;;;;;800.90;721.08;;;9.80;99.90;;;;;;5006255;28;20072;-79
2024/01/24 09:30:06;;;;;;;917.83;822.58;;;9.50;99.90;;;;;;4986583;28;20081;-79
2024/01/24 09:32:32;;;;;;;850.22;767.85;;;9.50;99.90;;;;;;4987289;28;20039;-79
2024/01/24 09:34:57;;;;;;;766.78;699.92;;;9.50;99.90;;;;;;4983058;28;20499;-79
2024/01/24 09:37:23;;;;;;;740.35;672.50;;;9.60;99.90;;;;;;4986548;28;20042;-80
2024/01/24 09:39:49;;;;;;;835.30;758.72;;;9.60;99.90;;;;;;5017646;28;20046;-79
2024/01/24 09:42:20;;;;;;;843.28;760.35;;;9.60;99.90;;;;;;4993163;28;20034;-79
2024/01/24 09:44:48;;;;;;;845.65;764.25;;;9.70;99.90;;;;;;5004439;28;20201;-80
2024/01/24 09:47:16;;;;;;;841.20;757.92;;;9.70;99.90;;;;;;4976225;28;20590;-80
2024/01/24 09:49:43;;;;;;;762.85;694.55;;;9.80;99.90;;;;;;4980021;28;20162;-79
2024/01/24 09:52:12;;;;;;;917.85;824.15;;;9.80;99.90;;;;;;4988143;28;20464;-79
2024/01/24 09:54:38;;;;;;;876.55;791.50;;;9.80;99.90;;;;;;4979718;28;20490;-79
2024/01/24 09:57:06;;;;;;;868.42;779.78;;;9.80;99.90;;;;;;4988718;28;20075;-80
2024/01/24 09:59:32;;;;;;;636.65;583.10;;;9.90;99.90;;;;;;4987719;28;20520;-79
2024/01/24 10:01:58;;;;;;;824.20;743.17;;;9.80;99.90;;;;;;5005020;28;20049;-79
2024/01/24 10:04:25;;;;;;;781.78;713.53;;;9.90;99.90;;;;;;5004465;28;20175;-79
2024/01/24 10:06:52;;;;;;;619.08;568.80;;;9.90;99.90;;;;;;5004476;28;20061;-80
2024/01/24 10:09:19;;;;;;;796.83;721.85;;;9.90;99.90;;;;;;5004893;28;20058;-79
2024/01/24 10:11:45;;;;;;;825.40;745.17;;;9.90;99.90;;;;;;5004674;28;20085;-79
2024/01/24 10:14:12;;;;;;;871.75;782.67;;;9.90;99.90;;;;;;5005657;28;20081;-79
2024/01/24 10:16:40;;;;;;;835.72;751.40;;;9.90;99.90;;;;;;5004049;28;20065;-79
2024/01/24 10:19:07;;;;;;;770.70;699.53;;;10.00;99.90;;;;;;5004109;28;20045;-79
2024/01/24 10:21:33;;;;;;;840.70;763.13;;;10.00;99.90;;;;;;5004725;28;20508;-79
2024/01/24 10:23:59;;;;;;;922.33;825.95;;;10.00;99.90;;;;;;5002528;28;20042;-80
2024/01/24 10:26:26;;;;;;;821.70;741.50;;;10.10;99.90;;;;;;5004318;28;20118;-79
2024/01/24 10:28:53;;;;;;;779.13;707.05;;;10.10;99.90;;;;;;5003053;28;20501;-79
2024/01/24 10:31:19;;;;;;;828.80;750.25;;;10.10;99.90;;;;;;5024241;28;20146;-79
2024/01/24 10:33:48;;;;;;;624.35;573.60;;;10.20;99.90;;;;;;4994336;28;20041;-78
2024/01/24 10:36:14;;;;;;;735.08;669.05;;;10.20;99.90;;;;;;4978455;28;20031;-79
2024/01/24 10:38:47;;;;;;;1110.90;842.65;;;10.20;99.90;;;;;;5001173;28;20049;-79
2024/01/24 10:41:14;;;;;;;603.97;553.00;;;10.20;99.90;;;;;;4998634;28;20069;-78
2024/01/24 10:43:46;;;;;;;681.60;621.60;;;10.20;99.90;;;;;;4982526;28;20046;-79
2024/01/24 10:46:13;;;;;;;790.53;719.25;;;10.20;99.90;;;;;;5003838;28;20131;-79
2024/01/24 10:48:41;;;;;;;552.20;507.40;;;10.20;99.90;;;;;;4989783;28;20050;-78
2024/01/24 10:51:07;;;;;;;698.28;633.42;;;10.20;99.90;;;;;;4994232;28;20103;-79
2024/01/24 10:53:35;;;;;;;533.65;491.15;;;10.20;99.90;;;;;;5002348;28;20054;-79
2024/01/24 10:56:02;;;;;;;633.55;579.70;;;10.20;99.90;;;;;;4996558;28;20038;-79
2024/01/24 10:58:29;;;;;;;605.08;554.38;;;10.20;99.90;;;;;;4998496;28;20383;-78
2024/01/24 11:00:55;;;;;;;535.15;489.02;;;10.20;99.90;;;;;;4984262;28;20050;-79
2024/01/24 11:03:21;;;;;;;650.03;590.15;;;10.20;99.90;;;;;;4974066;28;20371;-79
2024/01/24 11:05:52;;;;;;;638.70;584.13;;;10.20;99.90;;;;;;4984470;28;20119;-79
2024/01/24 11:08:31;;;;;;;615.63;564.95;;;10.10;99.90;;;;;;4975697;28;20074;-79
2024/01/24 11:11:08;;;;;;;625.88;573.83;;;10.10;99.90;;;;;;4985280;28;20050;-79
2024/01/24 11:13:34;;;;;;;668.00;608.92;;;10.20;99.90;;;;;;4985558;28;20181;-79
2024/01/24 11:16:05;;;;;;;716.08;650.35;;;10.20;99.90;;;;;;4986019;28;20046;-79
2024/01/24 11:18:31;;;;;;;635.53;582.30;;;10.20;99.90;;;;;;4983596;28;20179;-79
2024/01/24 11:20:58;;;;;;;715.05;650.30;;;10.20;99.90;;;;;;5003009;28;20454;-79
2024/01/24 11:23:40;;;;;;;777.60;698.75;;;10.20;99.90;;;;;;5003354;28;20129;-79
2024/01/24 11:26:08;;;;;;;736.63;666.88;;;10.20;99.90;;;;;;4979959;28;20038;-78
2024/01/24 11:28:34;;;;;;;609.33;557.67;;;10.30;99.90;;;;;;5000114;28;20058;-79
2024/01/24 11:31:00;;;;;;;656.55;600.92;;;10.30;99.90;;;;;;5003632;28;20054;-79
2024/01/24 11:33:26;;;;;;;674.88;604.80;;;10.30;99.90;;;;;;4998129;28;20054;-79
2024/01/24 11:35:53;;;;;;;569.25;521.97;;;10.20;99.90;;;;;;4992960;28;20106;-79
2024/01/24 11:38:21;;;;;;;651.22;596.33;;;10.20;99.90;;;;;;5013811;28;20084;-79
2024/01/24 11:40:49;;;;;;;603.50;553.00;;;10.20;99.90;;;;;;4984552;28;20424;-79
2024/01/24 11:43:23;;;;;;;620.15;566.55;;;10.20;99.90;;;;;;5001405;28;20061;-78
2024/01/24 11:45:54;;;;;;;770.33;686.78;;;10.20;99.90;;;;;;5002025;28;20103;-80
2024/01/24 11:48:20;;;;;;;573.90;526.25;;;10.20;99.90;;;;;;4993555;28;20486;-78
2024/01/24 11:50:54;;;;;;;634.80;582.13;;;10.20;99.90;;;;;;4994589;28;20050;-79
2024/01/24 11:53:20;;;;;;;828.30;743.65;;;10.20;99.90;;;;;;4993855;28;20490;-79
2024/01/24 11:55:55;;;;;;;521.65;481.58;;;10.20;99.90;;;;;;4995086;28;20095;-79
2024/01/24 11:58:25;;;;;;;736.78;670.83;;;10.20;99.90;;;;;;4992214;28;20078;-79
2024/01/24 12:00:53;;;;;;;557.85;512.55;;;10.20;99.90;;;;;;4982799;28;20153;-79
2024/01/24 12:03:19;;;;;;;527.42;485.40;;;10.10;99.90;;;;;;5033502;28;20046;-79
2024/01/24 12:05:45;;;;;;;688.90;624.00;;;10.10;99.90;;;;;;4994389;28;20123;-79